createdAt,value
2022-08-24T00:00:26.162Z,1298.90
2022-08-24T00:02:55.538Z,696.42
2022-08-24T00:05:24.077Z,835.03
2022-08-24T00:07:52.892Z,921.90
2022-08-24T00:10:22.301Z,1230.18
2022-08-24T00:12:51.240Z,1113.55
2022-08-24T00:15:19.894Z,1253.00
2022-08-24T00:17:49.679Z,587.20
2022-08-24T00:20:18.571Z,1197.45
2022-08-24T00:22:47.003Z,1380.57
2022-08-24T00:25:17.407Z,1103.07
2022-08-24T00:27:45.805Z,1201.35
2022-08-24T00:30:17.208Z,1671.05
2022-08-24T00:32:46.612Z,1135.63
2022-08-24T00:35:18.460Z,1248.80
2022-08-24T00:37:48.696Z,850.28
2022-08-24T00:40:23.111Z,1070.25
2022-08-24T00:42:51.839Z,1589.50
2022-08-24T00:45:22.232Z,785.03
2022-08-24T00:47:55.960Z,1043.75
2022-08-24T00:50:32.467Z,960.53
2022-08-24T00:53:04.262Z,1288.85
2022-08-24T00:55:36.202Z,1434.20
2022-08-24T00:58:16.981Z,1057.18
2022-08-24T01:00:50.716Z,1031.63
2022-08-24T01:03:19.847Z,936.15
2022-08-24T01:05:50.040Z,631.85
2022-08-24T01:08:18.622Z,1365.72
2022-08-24T01:10:50.086Z,1178.13
2022-08-24T01:13:18.942Z,1442.40
2022-08-24T01:15:49.545Z,1373.28
2022-08-24T01:18:37.572Z,1291.10
2022-08-24T01:21:13.403Z,1126.97
2022-08-24T01:23:45.145Z,1086.10
2022-08-24T01:26:19.402Z,1128.95
2022-08-24T01:28:51.780Z,1071.05
2022-08-24T01:31:22.380Z,1495.22
2022-08-24T01:33:52.183Z,1343.57
2022-08-24T01:36:30.856Z,1270.95
2022-08-24T01:39:06.941Z,1505.47
2022-08-24T01:41:35.470Z,1161.90
2022-08-24T01:44:04.703Z,1227.80
2022-08-24T01:46:33.248Z,1151.38
2022-08-24T01:49:02.158Z,1022.55
2022-08-24T01:51:32.178Z,1268.28
2022-08-24T01:54:03.551Z,642.55
2022-08-24T01:56:34.055Z,1161.97
2022-08-24T01:59:03.028Z,886.40
2022-08-24T02:01:35.613Z,1196.50
2022-08-24T02:04:06.463Z,838.65
2022-08-24T02:06:39.295Z,508.23
2022-08-24T02:09:12.278Z,1311.45
2022-08-24T02:11:41.838Z,862.35
2022-08-24T02:14:14.607Z,774.60
2022-08-24T02:16:43.836Z,509.80
2022-08-24T02:19:14.697Z,925.42
2022-08-24T02:21:43.308Z,684.25
2022-08-24T02:24:13.192Z,761.47
2022-08-24T02:26:41.824Z,849.90
2022-08-24T02:29:10.261Z,605.22
2022-08-24T02:31:39.154Z,740.08
2022-08-24T02:34:09.241Z,720.55
2022-08-24T02:36:37.841Z,388.30
2022-08-24T02:39:07.246Z,414.98
2022-08-24T02:41:37.945Z,1274.05
2022-08-24T02:44:07.423Z,689.40
2022-08-24T02:46:37.000Z,1215.43
2022-08-24T02:49:11.288Z,902.08
2022-08-24T02:51:47.016Z,360.45
2022-08-24T02:54:19.668Z,860.97
2022-08-24T02:56:52.423Z,663.80
2022-08-24T02:59:21.927Z,382.23
2022-08-24T03:01:51.366Z,288.40
2022-08-24T03:04:21.522Z,249.98
2022-08-24T03:06:50.126Z,255.00
2022-08-24T03:09:19.106Z,260.15
2022-08-24T03:11:47.613Z,315.70
2022-08-24T03:14:19.290Z,265.60
2022-08-24T03:16:47.723Z,273.02
2022-08-24T03:19:16.370Z,261.50
2022-08-24T03:21:46.564Z,234.65
2022-08-24T03:24:15.337Z,225.73
2022-08-24T03:26:44.221Z,240.43
2022-08-24T03:29:14.093Z,220.65
2022-08-24T03:31:46.227Z,242.18
2022-08-24T03:34:14.665Z,197.30
2022-08-24T03:36:46.042Z,201.18
2022-08-24T03:39:16.078Z,202.43
2022-08-24T03:41:44.827Z,209.38
2022-08-24T03:44:13.724Z,192.63
2022-08-24T03:46:42.359Z,235.77
2022-08-24T03:49:12.368Z,222.88
2022-08-24T03:51:41.921Z,243.85
2022-08-24T03:54:12.126Z,223.35
2022-08-24T03:56:42.017Z,256.00
2022-08-24T03:59:12.415Z,292.95
2022-08-24T04:01:43.985Z,291.95
2022-08-24T04:04:13.816Z,322.35
2022-08-24T04:06:44.541Z,309.38
2022-08-24T04:09:14.199Z,399.48
2022-08-24T04:11:46.272Z,374.08
2022-08-24T04:14:23.742Z,387.30
2022-08-24T04:17:02.348Z,313.77
2022-08-24T04:19:37.994Z,273.55
2022-08-24T04:22:06.531Z,267.00
2022-08-24T04:24:34.957Z,240.80
2022-08-24T04:27:03.435Z,253.32
2022-08-24T04:29:31.862Z,226.73
2022-08-24T04:32:00.369Z,196.95
2022-08-24T04:34:28.943Z,199.00
2022-08-24T04:37:01.645Z,218.15
2022-08-24T04:39:30.942Z,234.73
2022-08-24T04:42:20.001Z,201.25
2022-08-24T04:44:48.493Z,197.30
2022-08-24T04:47:17.286Z,204.60
2022-08-24T04:49:45.768Z,210.63
2022-08-24T04:52:16.578Z,179.50
2022-08-24T04:54:45.219Z,177.70
2022-08-24T04:57:19.652Z,178.95
2022-08-24T04:59:49.322Z,152.80
2022-08-24T05:02:18.419Z,148.95
2022-08-24T05:04:50.099Z,156.85
2022-08-24T05:07:20.199Z,154.02
2022-08-24T05:09:48.989Z,186.80
2022-08-24T05:12:21.326Z,170.98
2022-08-24T05:14:59.348Z,153.90
2022-08-24T05:17:28.904Z,149.05
2022-08-24T05:19:58.559Z,148.23
2022-08-24T05:22:28.607Z,149.30
2022-08-24T05:24:58.625Z,173.98
2022-08-24T05:27:27.109Z,156.68
2022-08-24T05:29:58.154Z,179.43
2022-08-24T05:32:26.639Z,186.70
2022-08-24T05:34:56.325Z,191.15
2022-08-24T05:37:26.425Z,167.02
2022-08-24T05:40:18.267Z,183.88
2022-08-24T05:42:51.064Z,167.70
2022-08-24T05:45:19.689Z,178.80
2022-08-24T05:47:48.219Z,207.40
2022-08-24T05:50:37.205Z,214.57
2022-08-24T05:53:06.221Z,162.90
2022-08-24T05:55:38.863Z,158.95
2022-08-24T05:58:07.638Z,149.00
2022-08-24T06:00:40.064Z,131.82
2022-08-24T06:03:08.952Z,128.25
2022-08-24T06:05:47.679Z,134.80
2022-08-24T06:08:16.672Z,120.18
2022-08-24T06:10:48.981Z,111.78
2022-08-24T06:13:18.540Z,108.07
2022-08-24T06:16:11.004Z,108.22
2022-08-24T06:18:38.298Z,102.60
2022-08-24T06:21:10.412Z,97.38
2022-08-24T06:23:44.177Z,101.30
2022-08-24T06:26:32.357Z,93.50
2022-08-24T06:29:02.519Z,96.32
2022-08-24T06:31:39.766Z,94.88
2022-08-24T06:34:13.044Z,94.97
2022-08-24T06:36:42.013Z,91.50
2022-08-24T06:39:11.773Z,82.32
2022-08-24T06:41:46.650Z,83.85
2022-08-24T06:44:21.695Z,87.00
2022-08-24T06:46:57.804Z,95.90
2022-08-24T06:49:26.481Z,89.60
2022-08-24T06:51:54.879Z,79.13
2022-08-24T06:54:23.915Z,81.65
2022-08-24T06:56:53.850Z,75.50
2022-08-24T06:59:22.379Z,68.97
2022-08-24T07:01:51.204Z,73.93
2022-08-24T07:04:20.146Z,63.28
2022-08-24T07:07:00.799Z,65.85
2022-08-24T07:09:33.190Z,57.25
2022-08-24T07:12:03.041Z,56.85
2022-08-24T07:14:32.070Z,57.58
2022-08-24T07:17:01.247Z,51.50
2022-08-24T07:19:31.079Z,48.42
2022-08-24T07:22:00.130Z,49.72
2022-08-24T07:24:28.842Z,53.50
2022-08-24T07:26:58.564Z,54.90
2022-08-24T07:29:47.339Z,56.20
2022-08-24T07:32:18.038Z,51.53
2022-08-24T07:34:47.286Z,56.28
2022-08-24T07:37:15.799Z,50.50
2022-08-24T07:39:48.520Z,44.70
2022-08-24T07:42:29.551Z,43.78
2022-08-24T07:45:02.265Z,38.08
2022-08-24T07:47:43.782Z,39.95
2022-08-24T07:50:35.143Z,36.30
2022-08-24T07:53:03.674Z,37.63
2022-08-24T07:55:34.386Z,34.67
2022-08-24T07:58:14.352Z,34.65
2022-08-24T08:00:47.774Z,31.65
2022-08-24T08:03:16.712Z,33.33
2022-08-24T08:05:46.687Z,31.42
2022-08-24T08:08:16.985Z,28.15
2022-08-24T08:10:46.798Z,27.67
2022-08-24T08:13:15.657Z,26.52
2022-08-24T08:15:47.077Z,27.25
2022-08-24T08:18:16.247Z,25.40
2022-08-24T08:20:47.376Z,24.77
2022-08-24T08:23:33.738Z,22.75
2022-08-24T08:26:16.448Z,22.58
2022-08-24T08:29:18.435Z,30.85
2022-08-24T08:31:48.441Z,23.98
2022-08-24T08:34:17.426Z,27.70
2022-08-24T08:36:47.211Z,22.88
2022-08-24T08:39:20.645Z,19.08
2022-08-24T08:42:15.214Z,22.52
2022-08-24T08:44:56.976Z,23.83
2022-08-24T08:47:54.400Z,20.50
2022-08-24T08:50:30.700Z,18.17
2022-08-24T08:53:31.796Z,20.55
2022-08-24T08:56:07.564Z,18.33
2022-08-24T08:58:57.268Z,25.23
2022-08-24T09:01:44.239Z,20.80
2022-08-24T09:05:00.480Z,21.88
2022-08-24T09:07:46.368Z,18.13
2022-08-24T09:10:29.891Z,22.13
2022-08-24T09:13:18.070Z,20.13
2022-08-24T09:16:08.402Z,21.40
2022-08-24T09:18:56.453Z,16.58
2022-08-24T09:21:45.424Z,19.10
2022-08-24T09:24:42.937Z,21.42
2022-08-24T09:27:50.206Z,20.50
2022-08-24T09:30:24.783Z,19.30
2022-08-24T09:33:01.197Z,18.63
2022-08-24T09:35:36.642Z,21.23
2022-08-24T09:38:24.298Z,20.00
2022-08-24T09:41:20.162Z,18.08
2022-08-24T09:44:17.466Z,18.77
2022-08-24T09:47:07.778Z,23.20
2022-08-24T09:50:17.290Z,19.35
2022-08-24T09:53:28.334Z,20.52
2022-08-24T09:56:12.150Z,20.45
2022-08-24T09:58:58.134Z,17.83
2022-08-24T10:01:35.591Z,18.67
2022-08-24T10:04:19.100Z,15.70
2022-08-24T10:07:01.145Z,18.95
2022-08-24T10:09:55.141Z,19.63
2022-08-24T10:12:38.894Z,17.77
2022-08-24T10:15:11.080Z,19.80
2022-08-24T10:17:51.266Z,20.50
2022-08-24T10:20:24.701Z,20.83
2022-08-24T10:23:18.484Z,20.05
2022-08-24T10:25:55.578Z,19.30
2022-08-24T10:28:54.644Z,15.45
2022-08-24T10:31:32.372Z,20.00
2022-08-24T10:34:12.832Z,18.83
2022-08-24T10:37:00.406Z,17.15
2022-08-24T10:39:47.742Z,19.33
2022-08-24T10:43:07.062Z,21.15
2022-08-24T10:45:59.068Z,25.75
2022-08-24T10:49:08.416Z,25.63
2022-08-24T10:51:54.416Z,22.63
2022-08-24T10:54:24.721Z,22.35
2022-08-24T10:57:03.156Z,21.20
2022-08-24T10:59:37.968Z,25.73
2022-08-24T11:02:12.869Z,20.25
2022-08-24T11:04:42.015Z,22.08
2022-08-24T11:07:18.739Z,26.13
2022-08-24T11:09:53.442Z,21.00
2022-08-24T11:12:29.376Z,21.00
2022-08-24T11:15:02.441Z,22.75
2022-08-24T11:17:34.874Z,20.73
2022-08-24T11:20:03.809Z,20.38
2022-08-24T11:22:37.910Z,22.30
2022-08-24T11:25:14.790Z,30.52
2022-08-24T11:27:47.283Z,21.13
2022-08-24T11:30:25.682Z,19.35
2022-08-24T11:32:57.593Z,25.70
2022-08-24T11:35:28.645Z,24.60
2022-08-24T11:38:04.303Z,22.17
2022-08-24T11:40:38.895Z,22.30
2022-08-24T11:43:20.242Z,26.30
2022-08-24T11:46:04.280Z,23.27
2022-08-24T11:48:43.611Z,27.63
2022-08-24T11:51:17.028Z,29.20
2022-08-24T11:53:56.848Z,23.30
2022-08-24T11:56:32.531Z,25.08
2022-08-24T11:59:07.070Z,27.38
2022-08-24T12:01:47.316Z,23.27
2022-08-24T12:04:33.231Z,22.05
2022-08-24T12:07:08.968Z,28.08
2022-08-24T12:09:53.364Z,25.63
2022-08-24T12:12:28.169Z,25.02
2022-08-24T12:15:01.979Z,23.88
2022-08-24T12:17:38.124Z,21.55
2022-08-24T12:20:19.593Z,23.80
2022-08-24T12:22:48.217Z,21.88
2022-08-24T12:25:35.472Z,25.00
2022-08-24T12:28:05.984Z,19.95
2022-08-24T12:30:35.267Z,26.55
2022-08-24T12:33:10.202Z,19.58
2022-08-24T12:35:43.534Z,27.42
2022-08-24T12:38:16.970Z,27.42
2022-08-24T12:40:49.802Z,24.63
2022-08-24T12:43:24.377Z,25.25
2022-08-24T12:45:56.470Z,29.30
2022-08-24T12:48:31.935Z,21.40
2022-08-24T12:51:14.559Z,20.45
2022-08-24T12:54:01.688Z,22.48
2022-08-24T12:56:56.759Z,21.27
2022-08-24T12:59:28.798Z,28.88
2022-08-24T13:02:03.318Z,23.92
2022-08-24T13:04:37.850Z,21.65
2022-08-24T13:07:15.021Z,21.17
2022-08-24T13:09:46.337Z,18.55
2022-08-24T13:12:52.038Z,25.45
2022-08-24T13:15:26.222Z,20.40
2022-08-24T13:18:02.618Z,25.85
2022-08-24T13:20:56.013Z,22.27
2022-08-24T13:23:27.917Z,20.23
2022-08-24T13:25:59.703Z,22.17
2022-08-24T13:28:45.598Z,19.65
2022-08-24T13:31:26.932Z,23.73
2022-08-24T13:34:00.629Z,17.65
2022-08-24T13:36:52.629Z,20.23
2022-08-24T13:39:55.895Z,24.60
2022-08-24T13:43:04.144Z,21.63
2022-08-24T13:45:37.831Z,21.95
2022-08-24T13:48:32.564Z,24.63
2022-08-24T13:51:20.755Z,17.17
2022-08-24T13:54:08.613Z,29.50
2022-08-24T13:57:33.477Z,20.10
2022-08-24T14:00:15.011Z,19.92
2022-08-24T14:02:58.463Z,21.05
2022-08-24T14:05:38.546Z,20.63
2022-08-24T14:08:24.838Z,30.80
2022-08-24T14:11:04.772Z,22.73
2022-08-24T14:13:47.977Z,22.67
2022-08-24T14:16:53.646Z,25.75
2022-08-24T14:19:32.525Z,20.02
2022-08-24T14:22:07.454Z,17.15
2022-08-24T14:24:45.890Z,18.77
2022-08-24T14:27:39.156Z,29.02
2022-08-24T14:30:50.468Z,18.75
2022-08-24T14:33:28.917Z,21.75
2022-08-24T14:36:17.817Z,20.55
2022-08-24T14:39:03.994Z,22.08
2022-08-24T14:41:47.740Z,26.92
2022-08-24T14:44:35.431Z,26.50
2022-08-24T14:47:10.274Z,22.52
2022-08-24T14:49:49.384Z,22.77
2022-08-24T14:53:03.096Z,23.00
2022-08-24T14:55:39.924Z,21.92
2022-08-24T14:58:29.328Z,29.77
2022-08-24T15:01:30.246Z,27.02
2022-08-24T15:04:10.987Z,28.13
2022-08-24T15:06:47.774Z,28.45
2022-08-24T15:09:23.343Z,29.27
2022-08-24T15:11:53.716Z,25.98
2022-08-24T15:14:37.480Z,28.58
2022-08-24T15:17:11.560Z,28.48
2022-08-24T15:19:50.711Z,25.80
2022-08-24T15:22:28.907Z,28.75
2022-08-24T15:25:06.109Z,22.67
2022-08-24T15:27:44.018Z,26.52
2022-08-24T15:30:23.672Z,30.27
2022-08-24T15:33:02.380Z,28.35
2022-08-24T15:35:33.608Z,26.27
2022-08-24T15:38:18.208Z,30.52
2022-08-24T15:40:48.725Z,26.58
2022-08-24T15:43:17.556Z,27.17
2022-08-24T15:45:49.142Z,28.88
2022-08-24T15:48:24.110Z,25.27
2022-08-24T15:50:55.968Z,29.08
2022-08-24T15:53:34.365Z,26.80
2022-08-24T15:56:35.433Z,23.42
2022-08-24T15:59:11.015Z,23.95
2022-08-24T16:01:57.026Z,29.50
2022-08-24T16:04:42.615Z,24.27
2022-08-24T16:07:15.587Z,31.27
2022-08-24T16:09:44.496Z,26.20
2022-08-24T16:12:16.452Z,28.13
2022-08-24T16:14:47.628Z,35.65
2022-08-24T16:17:30.354Z,37.45
2022-08-24T16:20:03.790Z,30.58
2022-08-24T16:22:36.126Z,30.83
2022-08-24T16:25:22.625Z,31.02
2022-08-24T16:27:58.959Z,30.50
2022-08-24T16:30:39.191Z,34.80
2022-08-24T16:33:08.538Z,34.22
2022-08-24T16:35:38.907Z,31.58
2022-08-24T16:38:07.413Z,33.45
2022-08-24T16:40:36.569Z,26.95
2022-08-24T16:43:05.272Z,25.05
2022-08-24T16:45:36.040Z,31.95
2022-08-24T16:48:05.550Z,26.05
2022-08-24T16:50:34.126Z,30.13
2022-08-24T16:53:03.985Z,27.50
2022-08-24T16:55:33.140Z,29.83
2022-08-24T16:58:02.125Z,28.70
2022-08-24T17:00:30.709Z,34.30
2022-08-24T17:02:59.719Z,35.70
2022-08-24T17:05:29.781Z,31.08
2022-08-24T17:08:00.469Z,34.50
2022-08-24T17:10:34.924Z,30.75
2022-08-24T17:13:06.060Z,31.60
2022-08-24T17:15:34.895Z,27.33
2022-08-24T17:18:07.102Z,26.15
2022-08-24T17:20:35.680Z,24.60
2022-08-24T17:23:04.284Z,29.20
2022-08-24T17:25:34.322Z,27.20
2022-08-24T17:28:03.635Z,30.77
2022-08-24T17:30:34.798Z,34.45
2022-08-24T17:33:03.577Z,27.27
2022-08-24T17:35:32.414Z,29.95
2022-08-24T17:38:01.623Z,30.10
2022-08-24T17:40:32.069Z,29.50
2022-08-24T17:43:02.479Z,32.00
2022-08-24T17:45:31.244Z,35.83
2022-08-24T17:47:59.778Z,31.42
2022-08-24T17:50:28.633Z,25.50
2022-08-24T17:53:00.564Z,33.78
2022-08-24T17:55:29.713Z,32.28
2022-08-24T17:58:12.651Z,30.20
2022-08-24T18:00:42.054Z,32.60
2022-08-24T18:03:16.597Z,30.05
2022-08-24T18:05:47.298Z,35.50
2022-08-24T18:08:17.331Z,26.40
2022-08-24T18:10:47.849Z,30.48
2022-08-24T18:13:17.665Z,32.65
2022-08-24T18:15:46.366Z,27.42
2022-08-24T18:18:17.113Z,36.50
2022-08-24T18:20:45.580Z,32.13
2022-08-24T18:23:14.456Z,38.08
2022-08-24T18:25:52.709Z,36.35
2022-08-24T18:28:24.132Z,32.05
2022-08-24T18:30:53.059Z,34.30
2022-08-24T18:33:21.815Z,30.85
2022-08-24T18:35:50.602Z,32.97
2022-08-24T18:38:19.164Z,35.72
2022-08-24T18:40:52.823Z,34.78
2022-08-24T18:43:25.011Z,37.75
2022-08-24T18:45:54.485Z,34.80
2022-08-24T18:48:23.846Z,32.83
2022-08-24T18:50:53.492Z,33.72
2022-08-24T18:53:25.512Z,31.95
2022-08-24T18:55:54.093Z,35.20
2022-08-24T18:58:23.903Z,31.67
2022-08-24T19:00:52.471Z,29.88
2022-08-24T19:03:22.445Z,31.15
2022-08-24T19:05:50.918Z,38.95
2022-08-24T19:08:19.424Z,36.65
2022-08-24T19:10:48.032Z,27.85
2022-08-24T19:13:18.535Z,35.05
2022-08-24T19:15:49.251Z,33.50
2022-08-24T19:18:20.640Z,26.50
2022-08-24T19:20:51.775Z,42.80
2022-08-24T19:23:23.676Z,31.75
2022-08-24T19:25:53.419Z,34.63
2022-08-24T19:28:22.753Z,35.83
2022-08-24T19:30:55.304Z,34.60
2022-08-24T19:33:27.029Z,32.88
2022-08-24T19:35:55.762Z,37.38
2022-08-24T19:38:26.128Z,43.88
2022-08-24T19:40:57.260Z,37.22
2022-08-24T19:43:26.994Z,35.00
2022-08-24T19:46:04.092Z,34.45
2022-08-24T19:48:34.601Z,45.08
2022-08-24T19:51:04.409Z,39.47
2022-08-24T19:53:35.484Z,38.75
2022-08-24T19:56:05.283Z,34.08
2022-08-24T19:58:40.248Z,35.63
2022-08-24T20:01:15.166Z,36.28
2022-08-24T20:03:43.659Z,33.10
2022-08-24T20:06:14.699Z,37.67
2022-08-24T20:08:43.267Z,37.90
2022-08-24T20:11:17.665Z,36.97
2022-08-24T20:13:46.253Z,41.22
2022-08-24T20:16:18.589Z,37.95
2022-08-24T20:18:47.607Z,36.50
2022-08-24T20:21:17.017Z,44.00
2022-08-24T20:23:45.600Z,44.30
2022-08-24T20:26:15.584Z,39.03
2022-08-24T20:28:47.653Z,40.35
2022-08-24T20:31:27.450Z,44.88
2022-08-24T20:33:57.668Z,40.00
2022-08-24T20:36:28.683Z,39.47
2022-08-24T20:38:58.811Z,44.60
2022-08-24T20:41:28.871Z,42.13
2022-08-24T20:43:57.993Z,39.67
2022-08-24T20:46:28.670Z,41.10
2022-08-24T20:48:59.119Z,40.10
2022-08-24T20:51:27.708Z,38.40
2022-08-24T20:53:57.391Z,41.03
2022-08-24T20:56:31.315Z,36.10
2022-08-24T20:59:02.441Z,43.00
2022-08-24T21:01:33.262Z,40.80
2022-08-24T21:04:05.327Z,46.78
2022-08-24T21:06:35.400Z,47.20
2022-08-24T21:09:05.639Z,39.83
2022-08-24T21:11:34.863Z,42.67
2022-08-24T21:14:06.176Z,42.75
2022-08-24T21:16:39.622Z,47.28
2022-08-24T21:19:08.781Z,40.40
2022-08-24T21:21:41.695Z,45.70
2022-08-24T21:24:10.967Z,47.33
2022-08-24T21:26:40.369Z,43.92
2022-08-24T21:29:10.875Z,41.50
2022-08-24T21:31:40.870Z,44.65
2022-08-24T21:34:27.974Z,47.22
2022-08-24T21:36:56.681Z,45.47
2022-08-24T21:39:26.102Z,45.22
2022-08-24T21:41:54.755Z,48.55
2022-08-24T21:44:24.953Z,51.35
2022-08-24T21:46:55.031Z,51.72
2022-08-24T21:49:23.843Z,46.42
2022-08-24T21:51:52.281Z,46.55
2022-08-24T21:54:20.994Z,49.13
2022-08-24T21:56:49.735Z,51.65
2022-08-24T21:59:18.315Z,58.95
2022-08-24T22:01:46.896Z,51.47
2022-08-24T22:04:16.736Z,48.40
2022-08-24T22:06:45.316Z,50.42
2022-08-24T22:09:13.816Z,47.05
2022-08-24T22:11:43.140Z,54.17
2022-08-24T22:14:11.701Z,52.08
2022-08-24T22:16:40.067Z,53.45
2022-08-24T22:19:08.466Z,53.67
2022-08-24T22:21:45.901Z,51.38
2022-08-24T22:24:16.353Z,52.03
2022-08-24T22:26:45.321Z,58.95
2022-08-24T22:29:14.336Z,54.45
2022-08-24T22:31:44.197Z,58.17
2022-08-24T22:34:19.464Z,55.85
2022-08-24T22:36:51.803Z,58.65
2022-08-24T22:39:22.448Z,60.92
2022-08-24T22:41:50.873Z,59.63
2022-08-24T22:44:22.063Z,53.13
2022-08-24T22:46:52.635Z,61.15
2022-08-24T22:49:23.286Z,57.03
2022-08-24T22:51:53.986Z,57.17
2022-08-24T22:54:22.979Z,51.40
2022-08-24T22:56:53.853Z,57.47
2022-08-24T22:59:24.781Z,55.20
2022-08-24T23:01:55.103Z,58.15
2022-08-24T23:04:27.023Z,55.53
2022-08-24T23:06:57.247Z,50.88
2022-08-24T23:09:26.094Z,51.45
2022-08-24T23:11:56.311Z,48.10
2022-08-24T23:14:25.933Z,50.50
2022-08-24T23:16:54.474Z,51.78
2022-08-24T23:19:43.177Z,57.80
2022-08-24T23:22:15.378Z,59.53
2022-08-24T23:24:44.215Z,59.88
2022-08-24T23:27:14.889Z,63.25
2022-08-24T23:29:44.589Z,55.38
2022-08-24T23:32:13.726Z,62.20
2022-08-24T23:34:46.398Z,62.97
2022-08-24T23:37:16.672Z,58.05
2022-08-24T23:39:45.208Z,52.38
2022-08-24T23:42:13.742Z,54.20
2022-08-24T23:44:42.405Z,60.80
2022-08-24T23:47:10.843Z,59.75
2022-08-24T23:49:41.853Z,45.83
2022-08-24T23:52:25.910Z,49.97
2022-08-24T23:55:07.073Z,43.88
2022-08-24T23:57:47.584Z,39.17
